sensor_id;sensor_type;location;lat;lon;timestamp;P1;durP1;ratioP1;P2;durP2;ratioP2
48845;SDS011;34665;51.886;5.436;2024-01-15T00:00:38;77.53;;;11.80;;
48845;SDS011;34665;51.886;5.436;2024-01-15T00:03:04;52.70;;;13.18;;
48845;SDS011;34665;51.886;5.436;2024-01-15T00:05:29;59.70;;;14.50;;
48845;SDS011;34665;51.886;5.436;2024-01-15T00:07:55;34.95;;;10.68;;
48845;SDS011;34665;51.886;5.436;2024-01-15T00:10:20;69.73;;;16.00;;
48845;SDS011;34665;51.886;5.436;2024-01-15T00:12:46;34.85;;;9.20;;
48845;SDS011;34665;51.886;5.436;2024-01-15T00:15:12;48.67;;;9.87;;
48845;SDS011;34665;51.886;5.436;2024-01-15T00:17:37;56.10;;;14.87;;
48845;SDS011;34665;51.886;5.436;2024-01-15T00:20:03;62.25;;;16.40;;
48845;SDS011;34665;51.886;5.436;2024-01-15T00:22:29;55.90;;;15.00;;
48845;SDS011;34665;51.886;5.436;2024-01-15T00:24:54;49.00;;;13.67;;
48845;SDS011;34665;51.886;5.436;2024-01-15T00:27:20;58.63;;;18.00;;
48845;SDS011;34665;51.886;5.436;2024-01-15T00:29:45;52.22;;;14.77;;
48845;SDS011;34665;51.886;5.436;2024-01-15T00:32:11;54.63;;;10.63;;
48845;SDS011;34665;51.886;5.436;2024-01-15T00:34:36;45.03;;;10.67;;
48845;SDS011;34665;51.886;5.436;2024-01-15T00:37:02;39.58;;;10.15;;
48845;SDS011;34665;51.886;5.436;2024-01-15T00:39:28;34.60;;;8.63;;
48845;SDS011;34665;51.886;5.436;2024-01-15T00:41:54;20.15;;;4.10;;
48845;SDS011;34665;51.886;5.436;2024-01-15T00:44:19;25.77;;;3.50;;
48845;SDS011;34665;51.886;5.436;2024-01-15T00:46:45;13.35;;;1.85;;
48845;SDS011;34665;51.886;5.436;2024-01-15T00:49:13;13.82;;;2.65;;
48845;SDS011;34665;51.886;5.436;2024-01-15T00:51:38;13.98;;;3.25;;
48845;SDS011;34665;51.886;5.436;2024-01-15T00:54:04;12.63;;;1.98;;
48845;SDS011;34665;51.886;5.436;2024-01-15T00:56:30;7.20;;;1.50;;
48845;SDS011;34665;51.886;5.436;2024-01-15T00:58:55;22.80;;;3.87;;
48845;SDS011;34665;51.886;5.436;2024-01-15T01:01:21;34.08;;;6.70;;
48845;SDS011;34665;51.886;5.436;2024-01-15T01:03:46;54.13;;;11.57;;
48845;SDS011;34665;51.886;5.436;2024-01-15T01:06:11;46.77;;;11.07;;
48845;SDS011;34665;51.886;5.436;2024-01-15T01:08:38;59.28;;;12.93;;
48845;SDS011;34665;51.886;5.436;2024-01-15T01:11:03;36.80;;;11.13;;
48845;SDS011;34665;51.886;5.436;2024-01-15T01:13:29;42.67;;;11.13;;
48845;SDS011;34665;51.886;5.436;2024-01-15T01:15:54;38.43;;;8.17;;
48845;SDS011;34665;51.886;5.436;2024-01-15T01:18:19;46.20;;;12.13;;
48845;SDS011;34665;51.886;5.436;2024-01-15T01:20:45;54.83;;;13.73;;
48845;SDS011;34665;51.886;5.436;2024-01-15T01:23:10;40.90;;;9.33;;
48845;SDS011;34665;51.886;5.436;2024-01-15T01:25:36;50.08;;;9.85;;
48845;SDS011;34665;51.886;5.436;2024-01-15T01:28:01;32.20;;;8.90;;
48845;SDS011;34665;51.886;5.436;2024-01-15T01:30:27;44.00;;;10.88;;
48845;SDS011;34665;51.886;5.436;2024-01-15T01:32:52;19.20;;;6.07;;
48845;SDS011;34665;51.886;5.436;2024-01-15T01:35:18;31.65;;;8.63;;
48845;SDS011;34665;51.886;5.436;2024-01-15T01:37:43;33.30;;;7.20;;
48845;SDS011;34665;51.886;5.436;2024-01-15T01:40:09;36.97;;;9.27;;
48845;SDS011;34665;51.886;5.436;2024-01-15T01:42:34;28.43;;;7.57;;
48845;SDS011;34665;51.886;5.436;2024-01-15T01:44:59;37.77;;;8.90;;
48845;SDS011;34665;51.886;5.436;2024-01-15T01:47:25;24.13;;;5.80;;
48845;SDS011;34665;51.886;5.436;2024-01-15T01:49:52;44.33;;;9.85;;
48845;SDS011;34665;51.886;5.436;2024-01-15T01:52:17;57.47;;;13.75;;
48845;SDS011;34665;51.886;5.436;2024-01-15T01:54:42;72.30;;;15.70;;
48845;SDS011;34665;51.886;5.436;2024-01-15T01:57:08;50.20;;;13.98;;
48845;SDS011;34665;51.886;5.436;2024-01-15T01:59:34;57.22;;;16.17;;
48845;SDS011;34665;51.886;5.436;2024-01-15T02:02:00;51.95;;;12.85;;
48845;SDS011;34665;51.886;5.436;2024-01-15T02:04:27;57.72;;;15.52;;
48845;SDS011;34665;51.886;5.436;2024-01-15T02:06:53;57.33;;;13.63;;
48845;SDS011;34665;51.886;5.436;2024-01-15T02:09:18;57.33;;;15.00;;
48845;SDS011;34665;51.886;5.436;2024-01-15T02:11:47;48.85;;;13.00;;
48845;SDS011;34665;51.886;5.436;2024-01-15T02:14:13;57.70;;;14.15;;
48845;SDS011;34665;51.886;5.436;2024-01-15T02:16:38;23.37;;;4.43;;
48845;SDS011;34665;51.886;5.436;2024-01-15T02:19:03;25.80;;;2.80;;
48845;SDS011;34665;51.886;5.436;2024-01-15T02:21:29;13.07;;;2.27;;
48845;SDS011;34665;51.886;5.436;2024-01-15T02:23:55;17.42;;;3.08;;
48845;SDS011;34665;51.886;5.436;2024-01-15T02:26:21;18.40;;;3.15;;
48845;SDS011;34665;51.886;5.436;2024-01-15T02:28:47;17.98;;;3.45;;
48845;SDS011;34665;51.886;5.436;2024-01-15T02:31:12;14.20;;;2.13;;
48845;SDS011;34665;51.886;5.436;2024-01-15T02:33:38;20.60;;;2.80;;
48845;SDS011;34665;51.886;5.436;2024-01-15T02:36:03;16.23;;;4.13;;
48845;SDS011;34665;51.886;5.436;2024-01-15T02:38:29;32.87;;;8.00;;
48845;SDS011;34665;51.886;5.436;2024-01-15T02:40:54;45.50;;;12.97;;
48845;SDS011;34665;51.886;5.436;2024-01-15T02:43:20;44.30;;;11.52;;
48845;SDS011;34665;51.886;5.436;2024-01-15T02:45:45;46.97;;;11.53;;
48845;SDS011;34665;51.886;5.436;2024-01-15T02:50:37;42.50;;;11.60;;
48845;SDS011;34665;51.886;5.436;2024-01-15T02:53:03;34.53;;;9.87;;
48845;SDS011;34665;51.886;5.436;2024-01-15T02:55:28;49.58;;;10.25;;
48845;SDS011;34665;51.886;5.436;2024-01-15T02:57:56;37.15;;;7.40;;
48845;SDS011;34665;51.886;5.436;2024-01-15T03:00:22;36.40;;;7.87;;
48845;SDS011;34665;51.886;5.436;2024-01-15T03:02:47;33.03;;;7.03;;
48845;SDS011;34665;51.886;5.436;2024-01-15T03:05:13;48.35;;;9.82;;
48845;SDS011;34665;51.886;5.436;2024-01-15T03:07:38;49.93;;;14.70;;
48845;SDS011;34665;51.886;5.436;2024-01-15T03:10:04;58.67;;;14.77;;
48845;SDS011;34665;51.886;5.436;2024-01-15T03:12:30;47.63;;;11.80;;
48845;SDS011;34665;51.886;5.436;2024-01-15T03:14:57;24.02;;;5.05;;
48845;SDS011;34665;51.886;5.436;2024-01-15T03:17:22;11.67;;;3.60;;
48845;SDS011;34665;51.886;5.436;2024-01-15T03:19:47;11.97;;;2.07;;
48845;SDS011;34665;51.886;5.436;2024-01-15T03:22:14;11.48;;;2.50;;
48845;SDS011;34665;51.886;5.436;2024-01-15T03:24:40;8.07;;;1.70;;
48845;SDS011;34665;51.886;5.436;2024-01-15T03:27:05;8.90;;;2.00;;
48845;SDS011;34665;51.886;5.436;2024-01-15T03:29:31;16.55;;;1.75;;
48845;SDS011;34665;51.886;5.436;2024-01-15T03:31:56;9.27;;;3.20;;
48845;SDS011;34665;51.886;5.436;2024-01-15T03:34:22;7.03;;;1.77;;
48845;SDS011;34665;51.886;5.436;2024-01-15T03:36:48;24.25;;;5.47;;
48845;SDS011;34665;51.886;5.436;2024-01-15T03:39:13;27.20;;;7.65;;
48845;SDS011;34665;51.886;5.436;2024-01-15T03:41:38;38.73;;;8.80;;
48845;SDS011;34665;51.886;5.436;2024-01-15T03:44:04;39.72;;;12.25;;
48845;SDS011;34665;51.886;5.436;2024-01-15T03:46:30;38.70;;;10.95;;
48845;SDS011;34665;51.886;5.436;2024-01-15T03:48:55;46.97;;;11.33;;
48845;SDS011;34665;51.886;5.436;2024-01-15T03:51:21;38.10;;;9.73;;
48845;SDS011;34665;51.886;5.436;2024-01-15T03:53:46;41.83;;;12.77;;
48845;SDS011;34665;51.886;5.436;2024-01-15T03:56:12;36.78;;;10.88;;
48845;SDS011;34665;51.886;5.436;2024-01-15T03:58:37;27.15;;;7.07;;
48845;SDS011;34665;51.886;5.436;2024-01-15T04:01:03;25.13;;;6.00;;
48845;SDS011;34665;51.886;5.436;2024-01-15T04:03:28;26.83;;;6.87;;
48845;SDS011;34665;51.886;5.436;2024-01-15T04:05:53;14.07;;;5.90;;
48845;SDS011;34665;51.886;5.436;2024-01-15T04:08:19;21.25;;;6.10;;
48845;SDS011;34665;51.886;5.436;2024-01-15T04:10:45;22.33;;;4.00;;
48845;SDS011;34665;51.886;5.436;2024-01-15T04:13:10;14.90;;;3.20;;
48845;SDS011;34665;51.886;5.436;2024-01-15T04:15:35;19.30;;;3.37;;
48845;SDS011;34665;51.886;5.436;2024-01-15T04:18:02;17.80;;;2.22;;
48845;SDS011;34665;51.886;5.436;2024-01-15T04:20:28;8.90;;;2.15;;
48845;SDS011;34665;51.886;5.436;2024-01-15T04:22:53;9.07;;;2.53;;
48845;SDS011;34665;51.886;5.436;2024-01-15T04:25:19;11.20;;;2.40;;
48845;SDS011;34665;51.886;5.436;2024-01-15T04:27:44;17.50;;;2.97;;
48845;SDS011;34665;51.886;5.436;2024-01-15T04:30:09;34.20;;;7.03;;
48845;SDS011;34665;51.886;5.436;2024-01-15T04:32:35;30.40;;;9.23;;
48845;SDS011;34665;51.886;5.436;2024-01-15T04:35:01;32.58;;;7.80;;
48845;SDS011;34665;51.886;5.436;2024-01-15T04:37:26;20.77;;;4.85;;
48845;SDS011;34665;51.886;5.436;2024-01-15T04:39:52;10.15;;;2.60;;
48845;SDS011;34665;51.886;5.436;2024-01-15T04:42:20;10.35;;;1.50;;
48845;SDS011;34665;51.886;5.436;2024-01-15T04:44:45;7.63;;;1.53;;
48845;SDS011;34665;51.886;5.436;2024-01-15T04:47:11;26.00;;;4.60;;
48845;SDS011;34665;51.886;5.436;2024-01-15T04:49:37;20.73;;;4.77;;
48845;SDS011;34665;51.886;5.436;2024-01-15T04:52:02;11.63;;;2.77;;
48845;SDS011;34665;51.886;5.436;2024-01-15T04:54:27;16.63;;;2.63;;
48845;SDS011;34665;51.886;5.436;2024-01-15T04:56:53;15.95;;;3.83;;
48845;SDS011;34665;51.886;5.436;2024-01-15T04:59:18;8.53;;;2.30;;
48845;SDS011;34665;51.886;5.436;2024-01-15T05:01:44;11.63;;;1.98;;
48845;SDS011;34665;51.886;5.436;2024-01-15T05:04:09;19.70;;;5.77;;
48845;SDS011;34665;51.886;5.436;2024-01-15T05:06:35;25.90;;;3.88;;
48845;SDS011;34665;51.886;5.436;2024-01-15T05:09:00;19.47;;;4.07;;
48845;SDS011;34665;51.886;5.436;2024-01-15T05:11:26;18.25;;;3.47;;
48845;SDS011;34665;51.886;5.436;2024-01-15T05:13:52;11.83;;;1.90;;
48845;SDS011;34665;51.886;5.436;2024-01-15T05:16:17;10.40;;;2.53;;
48845;SDS011;34665;51.886;5.436;2024-01-15T05:18:43;7.00;;;1.88;;
48845;SDS011;34665;51.886;5.436;2024-01-15T05:21:08;15.45;;;2.45;;
48845;SDS011;34665;51.886;5.436;2024-01-15T05:23:34;12.00;;;2.63;;
48845;SDS011;34665;51.886;5.436;2024-01-15T05:25:59;11.70;;;3.90;;
48845;SDS011;34665;51.886;5.436;2024-01-15T05:28:25;5.25;;;1.60;;
48845;SDS011;34665;51.886;5.436;2024-01-15T05:30:51;7.35;;;2.03;;
48845;SDS011;34665;51.886;5.436;2024-01-15T05:33:17;5.55;;;1.85;;
48845;SDS011;34665;51.886;5.436;2024-01-15T05:35:42;8.00;;;2.03;;
48845;SDS011;34665;51.886;5.436;2024-01-15T05:38:08;12.27;;;1.38;;
48845;SDS011;34665;51.886;5.436;2024-01-15T05:40:33;4.33;;;1.17;;
48845;SDS011;34665;51.886;5.436;2024-01-15T05:42:58;11.23;;;2.27;;
48845;SDS011;34665;51.886;5.436;2024-01-15T05:45:26;6.22;;;2.00;;
48845;SDS011;34665;51.886;5.436;2024-01-15T05:47:51;10.93;;;2.10;;
48845;SDS011;34665;51.886;5.436;2024-01-15T05:50:17;13.45;;;4.45;;
48845;SDS011;34665;51.886;5.436;2024-01-15T05:52:42;10.53;;;4.00;;
48845;SDS011;34665;51.886;5.436;2024-01-15T05:55:08;15.77;;;3.78;;
48845;SDS011;34665;51.886;5.436;2024-01-15T05:57:33;10.90;;;3.47;;
48845;SDS011;34665;51.886;5.436;2024-01-15T05:59:59;9.57;;;3.77;;
48845;SDS011;34665;51.886;5.436;2024-01-15T06:02:25;10.32;;;3.53;;
48845;SDS011;34665;51.886;5.436;2024-01-15T06:04:50;8.20;;;3.60;;
48845;SDS011;34665;51.886;5.436;2024-01-15T06:07:16;14.37;;;4.57;;
48845;SDS011;34665;51.886;5.436;2024-01-15T06:09:41;11.65;;;4.22;;
48845;SDS011;34665;51.886;5.436;2024-01-15T06:12:07;14.47;;;4.70;;
48845;SDS011;34665;51.886;5.436;2024-01-15T06:14:32;10.77;;;5.30;;
48845;SDS011;34665;51.886;5.436;2024-01-15T06:16:58;11.63;;;5.80;;
48845;SDS011;34665;51.886;5.436;2024-01-15T06:19:23;14.10;;;6.05;;
48845;SDS011;34665;51.886;5.436;2024-01-15T06:21:49;11.47;;;5.40;;
48845;SDS011;34665;51.886;5.436;2024-01-15T06:24:16;29.23;;;10.57;;
48845;SDS011;34665;51.886;5.436;2024-01-15T06:26:43;26.52;;;10.25;;
48845;SDS011;34665;51.886;5.436;2024-01-15T06:29:08;22.67;;;11.33;;
48845;SDS011;34665;51.886;5.436;2024-01-15T06:31:34;32.30;;;12.33;;
48845;SDS011;34665;51.886;5.436;2024-01-15T06:33:59;39.13;;;12.40;;
48845;SDS011;34665;51.886;5.436;2024-01-15T06:36:24;25.27;;;10.60;;
48845;SDS011;34665;51.886;5.436;2024-01-15T06:38:50;24.47;;;8.83;;
48845;SDS011;34665;51.886;5.436;2024-01-15T06:41:15;33.83;;;11.30;;
48845;SDS011;34665;51.886;5.436;2024-01-15T06:43:41;39.47;;;13.18;;
48845;SDS011;34665;51.886;5.436;2024-01-15T06:46:06;36.10;;;9.63;;
48845;SDS011;34665;51.886;5.436;2024-01-15T06:48:32;29.23;;;10.60;;
48845;SDS011;34665;51.886;5.436;2024-01-15T06:50:57;38.03;;;13.40;;
48845;SDS011;34665;51.886;5.436;2024-01-15T06:53:22;29.30;;;10.43;;
48845;SDS011;34665;51.886;5.436;2024-01-15T06:55:48;31.23;;;11.20;;
48845;SDS011;34665;51.886;5.436;2024-01-15T06:58:15;26.67;;;10.00;;
48845;SDS011;34665;51.886;5.436;2024-01-15T07:00:40;21.40;;;7.90;;
48845;SDS011;34665;51.886;5.436;2024-01-15T07:03:05;22.90;;;9.03;;
48845;SDS011;34665;51.886;5.436;2024-01-15T07:05:31;28.75;;;10.73;;
48845;SDS011;34665;51.886;5.436;2024-01-15T07:07:57;42.60;;;13.05;;
48845;SDS011;34665;51.886;5.436;2024-01-15T07:10:23;26.77;;;8.63;;
48845;SDS011;34665;51.886;5.436;2024-01-15T07:12:48;5.97;;;2.75;;
48845;SDS011;34665;51.886;5.436;2024-01-15T07:15:14;5.07;;;2.25;;
48845;SDS011;34665;51.886;5.436;2024-01-15T07:17:39;19.87;;;6.53;;
48845;SDS011;34665;51.886;5.436;2024-01-15T07:20:06;28.27;;;8.50;;
48845;SDS011;34665;51.886;5.436;2024-01-15T07:22:32;6.75;;;3.20;;
48845;SDS011;34665;51.886;5.436;2024-01-15T07:24:58;8.63;;;3.47;;
48845;SDS011;34665;51.886;5.436;2024-01-15T07:27:23;5.80;;;2.30;;
48845;SDS011;34665;51.886;5.436;2024-01-15T07:29:48;6.93;;;2.40;;
48845;SDS011;34665;51.886;5.436;2024-01-15T07:32:14;4.75;;;1.88;;
48845;SDS011;34665;51.886;5.436;2024-01-15T07:34:39;5.90;;;2.13;;
48845;SDS011;34665;51.886;5.436;2024-01-15T07:37:05;6.50;;;2.20;;
48845;SDS011;34665;51.886;5.436;2024-01-15T07:39:30;4.80;;;1.38;;
48845;SDS011;34665;51.886;5.436;2024-01-15T07:41:56;9.75;;;2.08;;
48845;SDS011;34665;51.886;5.436;2024-01-15T07:44:21;5.23;;;2.10;;
48845;SDS011;34665;51.886;5.436;2024-01-15T07:46:48;7.97;;;2.35;;
48845;SDS011;34665;51.886;5.436;2024-01-15T07:49:14;13.40;;;2.50;;
48845;SDS011;34665;51.886;5.436;2024-01-15T07:51:39;6.40;;;2.33;;
48845;SDS011;34665;51.886;5.436;2024-01-15T07:54:05;12.27;;;2.35;;
48845;SDS011;34665;51.886;5.436;2024-01-15T07:56:31;6.45;;;2.08;;
48845;SDS011;34665;51.886;5.436;2024-01-15T07:58:57;9.38;;;2.70;;
48845;SDS011;34665;51.886;5.436;2024-01-15T08:01:22;11.30;;;3.20;;
48845;SDS011;34665;51.886;5.436;2024-01-15T08:03:48;11.03;;;3.20;;
48845;SDS011;34665;51.886;5.436;2024-01-15T08:06:15;9.07;;;2.78;;
48845;SDS011;34665;51.886;5.436;2024-01-15T08:08:40;10.98;;;4.20;;
48845;SDS011;34665;51.886;5.436;2024-01-15T08:11:05;10.00;;;3.70;;
48845;SDS011;34665;51.886;5.436;2024-01-15T08:13:31;13.10;;;5.53;;
48845;SDS011;34665;51.886;5.436;2024-01-15T08:15:57;9.70;;;2.30;;
48845;SDS011;34665;51.886;5.436;2024-01-15T08:18:22;3.10;;;1.40;;
48845;SDS011;34665;51.886;5.436;2024-01-15T08:20:47;6.43;;;1.80;;
48845;SDS011;34665;51.886;5.436;2024-01-15T08:23:13;5.32;;;1.30;;
48845;SDS011;34665;51.886;5.436;2024-01-15T08:25:39;5.03;;;1.50;;
48845;SDS011;34665;51.886;5.436;2024-01-15T08:28:04;7.03;;;1.20;;
48845;SDS011;34665;51.886;5.436;2024-01-15T08:30:30;8.60;;;1.65;;
48845;SDS011;34665;51.886;5.436;2024-01-15T08:32:55;2.67;;;0.90;;
48845;SDS011;34665;51.886;5.436;2024-01-15T08:35:21;7.32;;;1.25;;
48845;SDS011;34665;51.886;5.436;2024-01-15T08:37:49;5.70;;;1.25;;
48845;SDS011;34665;51.886;5.436;2024-01-15T08:40:15;26.52;;;5.88;;
48845;SDS011;34665;51.886;5.436;2024-01-15T08:42:40;15.32;;;3.92;;
48845;SDS011;34665;51.886;5.436;2024-01-15T08:45:07;7.55;;;2.22;;
48845;SDS011;34665;51.886;5.436;2024-01-15T08:47:32;12.57;;;4.90;;
48845;SDS011;34665;51.886;5.436;2024-01-15T08:49:57;19.10;;;5.53;;
48845;SDS011;34665;51.886;5.436;2024-01-15T08:54:49;29.30;;;6.20;;
48845;SDS011;34665;51.886;5.436;2024-01-15T08:57:15;20.58;;;5.15;;
48845;SDS011;34665;51.886;5.436;2024-01-15T08:59:40;17.13;;;5.70;;
48845;SDS011;34665;51.886;5.436;2024-01-15T09:02:06;26.77;;;7.68;;
48845;SDS011;34665;51.886;5.436;2024-01-15T09:04:33;9.68;;;2.35;;
48845;SDS011;34665;51.886;5.436;2024-01-15T09:06:58;10.80;;;1.73;;
48845;SDS011;34665;51.886;5.436;2024-01-15T09:09:24;3.95;;;1.42;;
48845;SDS011;34665;51.886;5.436;2024-01-15T09:11:50;4.57;;;1.33;;
48845;SDS011;34665;51.886;5.436;2024-01-15T09:14:16;4.10;;;1.67;;
48845;SDS011;34665;51.886;5.436;2024-01-15T09:16:41;10.83;;;1.80;;
48845;SDS011;34665;51.886;5.436;2024-01-15T09:19:07;11.88;;;4.72;;
48845;SDS011;34665;51.886;5.436;2024-01-15T09:21:33;23.03;;;7.70;;
48845;SDS011;34665;51.886;5.436;2024-01-15T09:23:58;27.13;;;8.13;;
48845;SDS011;34665;51.886;5.436;2024-01-15T09:26:24;14.82;;;4.75;;
48845;SDS011;34665;51.886;5.436;2024-01-15T09:28:50;16.13;;;4.93;;
48845;SDS011;34665;51.886;5.436;2024-01-15T09:31:15;16.43;;;3.60;;
48845;SDS011;34665;51.886;5.436;2024-01-15T09:33:43;7.45;;;3.25;;
48845;SDS011;34665;51.886;5.436;2024-01-15T09:36:09;15.70;;;4.20;;
48845;SDS011;34665;51.886;5.436;2024-01-15T09:38:35;13.93;;;4.83;;
48845;SDS011;34665;51.886;5.436;2024-01-15T09:41:00;7.43;;;3.40;;
48845;SDS011;34665;51.886;5.436;2024-01-15T09:43:25;11.77;;;4.93;;
48845;SDS011;34665;51.886;5.436;2024-01-15T09:45:52;11.52;;;5.57;;
48845;SDS011;34665;51.886;5.436;2024-01-15T09:48:18;17.08;;;7.53;;
48845;SDS011;34665;51.886;5.436;2024-01-15T09:50:44;14.57;;;7.60;;
48845;SDS011;34665;51.886;5.436;2024-01-15T09:53:09;17.53;;;7.77;;
48845;SDS011;34665;51.886;5.436;2024-01-15T09:55:36;25.83;;;9.95;;
48845;SDS011;34665;51.886;5.436;2024-01-15T09:58:01;12.68;;;7.07;;
48845;SDS011;34665;51.886;5.436;2024-01-15T10:00:28;19.75;;;7.38;;
48845;SDS011;34665;51.886;5.436;2024-01-15T10:02:55;17.33;;;7.60;;
48845;SDS011;34665;51.886;5.436;2024-01-15T10:05:21;17.08;;;7.57;;
48845;SDS011;34665;51.886;5.436;2024-01-15T10:07:47;26.92;;;9.43;;
48845;SDS011;34665;51.886;5.436;2024-01-15T10:10:15;14.55;;;6.18;;
48845;SDS011;34665;51.886;5.436;2024-01-15T10:12:41;10.98;;;4.38;;
48845;SDS011;34665;51.886;5.436;2024-01-15T10:15:08;8.68;;;3.38;;
48845;SDS011;34665;51.886;5.436;2024-01-15T10:17:36;8.27;;;2.65;;
48845;SDS011;34665;51.886;5.436;2024-01-15T10:20:01;12.32;;;4.30;;
48845;SDS011;34665;51.886;5.436;2024-01-15T10:22:29;19.63;;;5.15;;
48845;SDS011;34665;51.886;5.436;2024-01-15T10:24:55;29.43;;;9.83;;
48845;SDS011;34665;51.886;5.436;2024-01-15T10:27:22;38.15;;;10.43;;
48845;SDS011;34665;51.886;5.436;2024-01-15T10:29:47;38.50;;;10.20;;
48845;SDS011;34665;51.886;5.436;2024-01-15T10:32:12;15.77;;;5.07;;
48845;SDS011;34665;51.886;5.436;2024-01-15T10:34:38;14.85;;;4.75;;
48845;SDS011;34665;51.886;5.436;2024-01-15T10:37:05;17.80;;;7.22;;
48845;SDS011;34665;51.886;5.436;2024-01-15T10:39:33;20.75;;;8.35;;
48845;SDS011;34665;51.886;5.436;2024-01-15T10:41:58;22.58;;;8.20;;
48845;SDS011;34665;51.886;5.436;2024-01-15T10:44:25;25.13;;;8.37;;
48845;SDS011;34665;51.886;5.436;2024-01-15T10:46:51;10.83;;;4.13;;
48845;SDS011;34665;51.886;5.436;2024-01-15T10:49:16;15.03;;;4.77;;
48845;SDS011;34665;51.886;5.436;2024-01-15T10:51:44;15.50;;;5.70;;
48845;SDS011;34665;51.886;5.436;2024-01-15T10:54:09;19.23;;;6.50;;
48845;SDS011;34665;51.886;5.436;2024-01-15T10:56:36;20.57;;;6.47;;
48845;SDS011;34665;51.886;5.436;2024-01-15T10:59:02;14.32;;;4.35;;
48845;SDS011;34665;51.886;5.436;2024-01-15T11:01:28;13.02;;;3.42;;
48845;SDS011;34665;51.886;5.436;2024-01-15T11:03:54;15.13;;;4.57;;
48845;SDS011;34665;51.886;5.436;2024-01-15T11:06:20;10.20;;;3.08;;
48845;SDS011;34665;51.886;5.436;2024-01-15T11:08:49;10.80;;;1.60;;
48845;SDS011;34665;51.886;5.436;2024-01-15T11:11:18;7.67;;;1.30;;
48845;SDS011;34665;51.886;5.436;2024-01-15T11:13:49;8.10;;;1.87;;
48845;SDS011;34665;51.886;5.436;2024-01-15T11:16:17;7.15;;;1.13;;
48845;SDS011;34665;51.886;5.436;2024-01-15T11:19:04;9.93;;;1.83;;
48845;SDS011;34665;51.886;5.436;2024-01-15T11:21:29;5.00;;;1.15;;
48845;SDS011;34665;51.886;5.436;2024-01-15T11:23:58;7.53;;;1.42;;
48845;SDS011;34665;51.886;5.436;2024-01-15T11:29:05;10.45;;;1.60;;
48845;SDS011;34665;51.886;5.436;2024-01-15T11:34:10;15.32;;;5.47;;
48845;SDS011;34665;51.886;5.436;2024-01-15T11:39:39;14.35;;;3.25;;
48845;SDS011;34665;51.886;5.436;2024-01-15T11:42:04;9.43;;;1.80;;
48845;SDS011;34665;51.886;5.436;2024-01-15T11:44:30;7.55;;;1.70;;
48845;SDS011;34665;51.886;5.436;2024-01-15T11:49:26;10.93;;;1.47;;
48845;SDS011;34665;51.886;5.436;2024-01-15T11:51:54;4.57;;;1.75;;
48845;SDS011;34665;51.886;5.436;2024-01-15T11:54:20;6.93;;;1.85;;
48845;SDS011;34665;51.886;5.436;2024-01-15T11:56:47;5.97;;;1.70;;
48845;SDS011;34665;51.886;5.436;2024-01-15T11:59:12;4.60;;;1.33;;
48845;SDS011;34665;51.886;5.436;2024-01-15T12:01:38;2.70;;;1.53;;
48845;SDS011;34665;51.886;5.436;2024-01-15T12:04:03;6.33;;;1.30;;
48845;SDS011;34665;51.886;5.436;2024-01-15T12:06:29;1.73;;;1.02;;
48845;SDS011;34665;51.886;5.436;2024-01-15T12:09:07;14.80;;;1.60;;
48845;SDS011;34665;51.886;5.436;2024-01-15T12:11:33;7.18;;;1.15;;
48845;SDS011;34665;51.886;5.436;2024-01-15T12:14:00;8.68;;;1.30;;
48845;SDS011;34665;51.886;5.436;2024-01-15T12:16:26;7.15;;;1.45;;
48845;SDS011;34665;51.886;5.436;2024-01-15T12:18:52;8.83;;;1.40;;
48845;SDS011;34665;51.886;5.436;2024-01-15T12:21:17;9.27;;;1.80;;
48845;SDS011;34665;51.886;5.436;2024-01-15T12:23:45;2.90;;;1.20;;
48845;SDS011;34665;51.886;5.436;2024-01-15T12:26:11;10.15;;;1.45;;
48845;SDS011;34665;51.886;5.436;2024-01-15T12:28:36;3.92;;;1.70;;
48845;SDS011;34665;51.886;5.436;2024-01-15T12:31:02;4.97;;;1.13;;
48845;SDS011;34665;51.886;5.436;2024-01-15T12:33:30;5.80;;;1.60;;
48845;SDS011;34665;51.886;5.436;2024-01-15T12:35:56;9.43;;;1.53;;
48845;SDS011;34665;51.886;5.436;2024-01-15T12:38:21;11.93;;;2.13;;
48845;SDS011;34665;51.886;5.436;2024-01-15T12:40:47;12.45;;;1.67;;
48845;SDS011;34665;51.886;5.436;2024-01-15T12:43:13;8.68;;;1.70;;
48845;SDS011;34665;51.886;5.436;2024-01-15T12:45:39;7.17;;;1.77;;
48845;SDS011;34665;51.886;5.436;2024-01-15T12:48:05;16.95;;;4.65;;
48845;SDS011;34665;51.886;5.436;2024-01-15T12:50:33;21.48;;;5.20;;
48845;SDS011;34665;51.886;5.436;2024-01-15T12:52:58;17.13;;;5.25;;
48845;SDS011;34665;51.886;5.436;2024-01-15T12:55:25;10.60;;;4.03;;
48845;SDS011;34665;51.886;5.436;2024-01-15T12:57:50;8.23;;;3.80;;
48845;SDS011;34665;51.886;5.436;2024-01-15T13:00:19;12.05;;;3.30;;
48845;SDS011;34665;51.886;5.436;2024-01-15T13:02:44;13.17;;;3.97;;
48845;SDS011;34665;51.886;5.436;2024-01-15T13:05:10;10.67;;;2.53;;
48845;SDS011;34665;51.886;5.436;2024-01-15T13:07:39;11.73;;;3.17;;
48845;SDS011;34665;51.886;5.436;2024-01-15T13:10:05;6.90;;;2.10;;
48845;SDS011;34665;51.886;5.436;2024-01-15T13:12:33;5.65;;;1.50;;
48845;SDS011;34665;51.886;5.436;2024-01-15T13:14:58;11.83;;;1.73;;
48845;SDS011;34665;51.886;5.436;2024-01-15T13:17:24;7.55;;;0.98;;
48845;SDS011;34665;51.886;5.436;2024-01-15T13:19:49;5.70;;;2.00;;
48845;SDS011;34665;51.886;5.436;2024-01-15T13:22:15;5.22;;;1.60;;
48845;SDS011;34665;51.886;5.436;2024-01-15T13:24:41;7.85;;;1.63;;
48845;SDS011;34665;51.886;5.436;2024-01-15T13:27:07;6.28;;;1.50;;
48845;SDS011;34665;51.886;5.436;2024-01-15T13:29:33;6.57;;;1.50;;
48845;SDS011;34665;51.886;5.436;2024-01-15T13:31:58;6.85;;;1.45;;
48845;SDS011;34665;51.886;5.436;2024-01-15T13:34:24;10.03;;;2.33;;
48845;SDS011;34665;51.886;5.436;2024-01-15T13:36:49;10.10;;;1.42;;
48845;SDS011;34665;51.886;5.436;2024-01-15T13:39:15;7.50;;;1.37;;
48845;SDS011;34665;51.886;5.436;2024-01-15T13:41:45;9.70;;;1.87;;
48845;SDS011;34665;51.886;5.436;2024-01-15T13:44:11;13.20;;;1.85;;
48845;SDS011;34665;51.886;5.436;2024-01-15T13:46:36;3.33;;;1.60;;
48845;SDS011;34665;51.886;5.436;2024-01-15T13:49:03;5.87;;;1.20;;
48845;SDS011;34665;51.886;5.436;2024-01-15T13:51:31;9.60;;;2.27;;
48845;SDS011;34665;51.886;5.436;2024-01-15T13:53:57;14.80;;;2.20;;
48845;SDS011;34665;51.886;5.436;2024-01-15T13:56:22;15.50;;;4.68;;
48845;SDS011;34665;51.886;5.436;2024-01-15T13:58:48;16.93;;;1.93;;
48845;SDS011;34665;51.886;5.436;2024-01-15T14:01:13;8.95;;;1.98;;
48845;SDS011;34665;51.886;5.436;2024-01-15T14:03:39;7.30;;;1.88;;
48845;SDS011;34665;51.886;5.436;2024-01-15T14:06:04;9.00;;;1.90;;
48845;SDS011;34665;51.886;5.436;2024-01-15T14:08:35;11.53;;;1.80;;
48845;SDS011;34665;51.886;5.436;2024-01-15T14:11:02;8.57;;;1.87;;
48845;SDS011;34665;51.886;5.436;2024-01-15T14:13:27;9.90;;;1.73;;
48845;SDS011;34665;51.886;5.436;2024-01-15T14:15:53;11.33;;;1.90;;
48845;SDS011;34665;51.886;5.436;2024-01-15T14:18:18;17.43;;;2.30;;
48845;SDS011;34665;51.886;5.436;2024-01-15T14:20:43;10.03;;;2.77;;
48845;SDS011;34665;51.886;5.436;2024-01-15T14:23:09;5.27;;;1.67;;
48845;SDS011;34665;51.886;5.436;2024-01-15T14:25:34;12.60;;;1.87;;
48845;SDS011;34665;51.886;5.436;2024-01-15T14:27:59;11.83;;;2.07;;
48845;SDS011;34665;51.886;5.436;2024-01-15T14:30:25;12.82;;;2.08;;
48845;SDS011;34665;51.886;5.436;2024-01-15T14:32:51;12.93;;;2.10;;
48845;SDS011;34665;51.886;5.436;2024-01-15T14:35:16;14.10;;;2.37;;
48845;SDS011;34665;51.886;5.436;2024-01-15T14:37:42;10.87;;;2.13;;
48845;SDS011;34665;51.886;5.436;2024-01-15T14:40:07;11.73;;;2.22;;
48845;SDS011;34665;51.886;5.436;2024-01-15T14:42:33;13.73;;;3.30;;